Time;durP1;ratioP1;P1;durP2;ratioP2;P2;SDS_P1;SDS_P2;PMS_P1;PMS_P2;Temp;Humidity;BMP_temperature;BMP_pressure;BME280_temperature;BME280_humidity;BME280_pressure;Samples;Min_cycle;Max_cycle;Signal;HPM_P1;HPM_P2
2022/06/08 00:00:22;;;;;;;;;;;;;;;26.87;43.77;94122.69;4998974;28;7348;-64
2022/06/08 00:03:01;;;;;;;;;;;;;;;26.86;44.34;94124.00;5004546;28;7220;-64
2022/06/08 00:05:30;;;;;;;;;;;;;;;26.86;43.39;94118.47;5015236;28;7041;-64
2022/06/08 00:07:59;;;;;;;;;;;;;;;26.85;43.68;94112.19;5003107;28;8822;-64
2022/06/08 00:10:27;;;;;;;;;;;;;;;26.85;43.94;94114.22;4998363;28;7212;-64
2022/06/08 00:12:56;;;;;;;;;;;;;;;26.86;43.42;94110.19;5013782;28;9341;-64
2022/06/08 00:15:25;;;;;;;;;;;;;;;26.82;43.49;94104.22;5011716;28;9492;-63
2022/06/08 00:17:54;;;;;;;;;;;;;;;26.84;43.84;94101.66;5012893;28;7054;-64
2022/06/08 00:20:20;;;;;;;;;;;;;;;26.83;43.97;94094.69;5016829;28;9121;-64
2022/06/08 00:22:48;;;;;;;;;;;;;;;26.81;43.56;94097.22;5011353;28;7314;-64
2022/06/08 00:25:15;;;;;;;;;;;;;;;26.81;44.04;94097.22;5008086;28;9030;-64
2022/06/08 00:27:43;;;;;;;;;;;;;;;26.81;43.34;94094.47;5006202;28;9480;-64
2022/06/08 00:30:26;;;;;;;;;;;;;;;26.79;43.76;94097.00;5018167;28;7199;-64
2022/06/08 00:32:56;;;;;;;;;;;;;;;26.77;43.56;94089.22;5010739;28;7583;-64
2022/06/08 00:35:23;;;;;;;;;;;;;;;26.79;44.02;94097.00;5011506;28;7194;-63
2022/06/08 00:37:50;;;;;;;;;;;;;;;26.77;44.27;94086.47;5021274;28;9118;-64
2022/06/08 00:40:22;;;;;;;;;;;;;;;26.75;44.44;94082.78;5011526;28;9044;-64
2022/06/08 00:42:53;;;;;;;;;;;;;;;26.76;43.81;94075.97;5005310;28;7068;-63
2022/06/08 00:45:47;;;;;;;;;;;;;;;26.76;44.22;94073.97;5012402;28;9154;-63
2022/06/08 00:48:24;;;;;;;;;;;;;;;26.74;44.10;94076.50;5017445;28;7184;-63
2022/06/08 00:50:57;;;;;;;;;;;;;;;26.73;43.79;94068.75;5007615;28;9223;-63
2022/06/08 00:53:44;;;;;;;;;;;;;;;26.73;43.78;94066.00;5019122;28;9012;-63
2022/06/08 00:56:18;;;;;;;;;;;;;;;26.72;44.12;94070.75;5017098;28;9005;-64
2022/06/08 00:58:59;;;;;;;;;;;;;;;26.72;43.70;94067.97;5007507;28;8006;-64
2022/06/08 01:01:46;;;;;;;;;;;;;;;26.72;43.46;94065.22;5003552;28;6998;-63
2022/06/08 01:04:18;;;;;;;;;;;;;;;26.75;43.86;94066.22;5008842;28;7331;-64
2022/06/08 01:06:54;;;;;;;;;;;;;;;26.73;43.82;94052.94;5014680;28;9183;-63
2022/06/08 01:09:40;;;;;;;;;;;;;;;26.74;44.01;94056.44;5003592;28;7025;-64
2022/06/08 01:12:43;;;;;;;;;;;;;;;26.75;44.17;94052.41;5025768;28;9213;-64
2022/06/08 01:15:17;;;;;;;;;;;;;;;26.74;44.23;94050.91;4953678;28;7664;-64
2022/06/08 01:17:43;;;;;;;;;;;;;;;26.72;43.55;94042.41;4930860;28;7338;-64
2022/06/08 01:20:11;;;;;;;;;;;;;;;26.70;43.41;94039.41;4926819;28;8705;-64
2022/06/08 01:22:38;;;;;;;;;;;;;;;26.70;43.46;94042.94;4952402;28;8737;-63
2022/06/08 01:25:08;;;;;;;;;;;;;;;26.70;43.42;94039.41;4934529;28;9462;-64
2022/06/08 01:27:54;;;;;;;;;;;;;;;26.70;44.00;94040.19;4932493;28;7541;-64
2022/06/08 01:30:25;;;;;;;;;;;;;;;26.71;43.75;94036.13;4927649;28;8166;-64
2022/06/08 01:33:19;;;;;;;;;;;;;;;26.71;44.21;94035.38;4936899;28;7284;-64
2022/06/08 01:36:02;;;;;;;;;;;;;;;26.69;43.35;94022.13;4922308;29;7030;-64
2022/06/08 01:38:40;;;;;;;;;;;;;;;26.68;43.82;94020.66;4945451;28;6860;-64
2022/06/08 01:41:31;;;;;;;;;;;;;;;26.68;44.29;94014.38;4934515;28;8844;-64
2022/06/08 01:47:50;;;;;;;;;;;;;;;26.65;43.44;94018.94;4946563;28;7051;-64
2022/06/08 01:51:01;;;;;;;;;;;;;;;26.64;43.97;94022.22;4996500;28;7079;-64
2022/06/08 01:54:00;;;;;;;;;;;;;;;26.65;44.21;94023.69;4965918;28;7313;-64
2022/06/08 01:56:47;;;;;;;;;;;;;;;26.65;44.13;94009.91;4939925;28;9066;-64
2022/06/08 01:59:37;;;;;;;;;;;;;;;26.65;43.16;94009.91;4953331;28;7373;-64
2022/06/08 02:02:12;;;;;;;;;;;;;;;26.64;44.05;94006.41;4956282;28;9276;-64
2022/06/08 02:05:15;;;;;;;;;;;;;;;26.64;44.00;94009.16;4970434;28;7333;-63
2022/06/08 02:07:47;;;;;;;;;;;;;;;26.63;44.02;93999.41;4949059;28;9079;-63
2022/06/08 02:10:50;;;;;;;;;;;;;;;26.62;44.25;93999.94;4956372;28;8191;-63
2022/06/08 02:13:26;;;;;;;;;;;;;;;26.62;43.79;94000.66;4970627;28;7971;-63
2022/06/08 02:16:04;;;;;;;;;;;;;;;26.63;43.78;93998.66;4960575;28;7450;-64
2022/06/08 02:18:45;;;;;;;;;;;;;;;26.62;44.13;93995.16;4957801;28;7175;-64
2022/06/08 02:21:18;;;;;;;;;;;;;;;26.61;43.76;93993.66;4947524;28;7264;-63
2022/06/08 02:24:17;;;;;;;;;;;;;;;26.61;44.27;93999.19;4942840;28;7419;-63
2022/06/08 02:27:03;;;;;;;;;;;;;;;26.60;44.04;93994.22;4974262;28;7251;-64
2022/06/08 02:30:00;;;;;;;;;;;;;;;26.60;44.12;93991.44;5004758;28;7875;-63
2022/06/08 02:35:48;;;;;;;;;;;;;;;26.57;43.41;93987.72;5025582;28;9094;-64
2022/06/08 02:38:20;;;;;;;;;;;;;;;26.58;43.81;93994.72;5031628;28;9522;-64
2022/06/08 02:41:24;;;;;;;;;;;;;;;26.60;43.80;93996.97;5015064;28;9356;-63
2022/06/08 02:44:11;;;;;;;;;;;;;;;26.59;43.42;93984.44;5024215;28;9401;-64
2022/06/08 02:47:04;;;;;;;;;;;;;;;26.58;43.29;93982.94;5008773;28;7142;-64
2022/06/08 02:49:36;;;;;;;;;;;;;;;26.57;44.04;93990.47;5020976;28;8003;-63
2022/06/08 02:52:17;;;;;;;;;;;;;;;26.56;43.62;93988.22;5011757;28;8804;-64
2022/06/08 02:55:19;;;;;;;;;;;;;;;26.56;43.25;93986.22;5011612;28;9053;-64
2022/06/08 02:58:29;;;;;;;;;;;;;;;26.57;44.04;93984.97;4958232;28;9474;-64
2022/06/08 03:01:47;;;;;;;;;;;;;;;26.57;43.29;93981.47;4960064;28;9316;-63
2022/06/08 03:04:34;;;;;;;;;;;;;;;26.56;43.54;93975.19;4876414;29;8955;-64
2022/06/08 03:07:38;;;;;;;;;;;;;;;26.56;43.49;93968.94;4883944;29;9049;-64
2022/06/08 03:10:15;;;;;;;;;;;;;;;26.54;43.27;93969.47;4856813;29;7913;-64
2022/06/08 03:13:04;;;;;;;;;;;;;;;26.55;43.17;93967.44;4842573;29;7845;-64
2022/06/08 03:15:35;;;;;;;;;;;;;;;26.56;43.71;93966.91;4856991;29;7039;-63
2022/06/08 03:18:02;;;;;;;;;;;;;;;26.56;43.19;93964.16;4842182;29;9382;-64
2022/06/08 03:20:30;;;;;;;;;;;;;;;26.56;43.80;93960.66;4842014;29;9229;-64
2022/06/08 03:22:57;;;;;;;;;;;;;;;26.55;43.58;93961.94;4842247;29;7280;-64
2022/06/08 03:25:25;;;;;;;;;;;;;;;26.55;43.79;93961.94;4843144;29;7089;-64
2022/06/08 03:28:02;;;;;;;;;;;;;;;26.53;43.62;93961.72;4843114;29;7231;-64
2022/06/08 03:30:40;;;;;;;;;;;;;;;26.53;43.14;93951.44;4857866;29;8029;-64
2022/06/08 03:33:27;;;;;;;;;;;;;;;26.55;43.66;93950.91;4844423;29;7274;-64
2022/06/08 03:36:03;;;;;;;;;;;;;;;26.54;44.24;93954.91;4872543;29;7006;-63
2022/06/08 03:39:04;;;;;;;;;;;;;;;26.52;43.28;93947.19;4864368;28;7140;-63
2022/06/08 03:41:34;;;;;;;;;;;;;;;26.51;43.73;93953.97;4875016;29;7342;-64
2022/06/08 03:44:07;;;;;;;;;;;;;;;26.51;43.76;93951.19;4881631;29;7253;-64
2022/06/08 03:46:40;;;;;;;;;;;;;;;26.50;43.38;93944.22;4913605;29;9281;-63
2022/06/08 03:49:16;;;;;;;;;;;;;;;26.50;43.72;93954.50;4931253;29;7172;-63
2022/06/08 03:51:46;;;;;;;;;;;;;;;26.50;43.80;93951.72;4929284;28;9185;-63
2022/06/08 03:54:19;;;;;;;;;;;;;;;26.50;43.64;93943.47;4906298;29;8067;-64
2022/06/08 03:56:52;;;;;;;;;;;;;;;26.50;43.06;93948.97;4907344;29;7249;-64
2022/06/08 03:59:22;;;;;;;;;;;;;;;26.50;43.61;93948.97;4908700;29;9587;-63
2022/06/08 04:01:48;;;;;;;;;;;;;;;26.47;43.85;93939.00;4921470;29;7287;-64
2022/06/08 04:04:29;;;;;;;;;;;;;;;26.47;43.93;93933.50;4911872;29;7111;-64
2022/06/08 04:07:14;;;;;;;;;;;;;;;26.50;43.91;93940.69;4907339;29;7460;-63
2022/06/08 04:09:51;;;;;;;;;;;;;;;26.48;43.68;93935.72;4921860;29;7919;-64
2022/06/08 04:12:55;;;;;;;;;;;;;;;26.50;43.01;93940.69;4916003;29;9169;-63
2022/06/08 04:18:14;;;;;;;;;;;;;;;26.47;43.79;93927.97;4907743;29;7056;-63
2022/06/08 04:20:42;;;;;;;;;;;;;;;26.48;43.72;93923.94;4899351;29;8184;-63
2022/06/08 04:23:31;;;;;;;;;;;;;;;26.47;44.04;93923.19;4914239;29;9066;-64
2022/06/08 04:26:08;;;;;;;;;;;;;;;26.47;43.57;93922.47;4898170;29;7275;-64
2022/06/08 04:29:04;;;;;;;;;;;;;;;26.47;43.97;93911.44;4913427;29;7302;-64
2022/06/08 04:31:33;;;;;;;;;;;;;;;26.46;43.14;93909.94;4878877;29;9741;-64
2022/06/08 04:34:11;;;;;;;;;;;;;;;26.48;43.57;93901.88;4893792;29;9400;-64
2022/06/08 04:36:42;;;;;;;;;;;;;;;26.48;43.53;93897.13;4894635;29;9227;-63
2022/06/08 04:39:19;;;;;;;;;;;;;;;26.49;43.00;93904.09;4894244;29;7863;-63
2022/06/08 04:41:54;;;;;;;;;;;;;;;26.50;43.77;93900.09;4887232;29;9491;-64
2022/06/08 04:44:40;;;;;;;;;;;;;;;26.46;43.03;93879.59;4880217;29;7767;-64
2022/06/08 04:47:15;;;;;;;;;;;;;;;26.44;43.58;93884.91;4878839;29;9125;-63
2022/06/08 04:49:43;;;;;;;;;;;;;;;26.43;43.33;93880.66;4922587;29;7338;-64
2022/06/08 04:52:35;;;;;;;;;;;;;;;26.43;43.95;93883.41;4945609;28;9090;-64
2022/06/08 04:55:09;;;;;;;;;;;;;;;26.42;42.97;93876.41;4933500;28;7250;-64
2022/06/08 04:57:53;;;;;;;;;;;;;;;26.43;43.09;93872.38;4938804;28;7066;-64
2022/06/08 05:00:30;;;;;;;;;;;;;;;26.45;43.45;93875.34;4955072;28;7291;-64
2022/06/08 05:03:00;;;;;;;;;;;;;;;26.45;43.67;93880.84;4928742;28;6977;-64
2022/06/08 05:05:38;;;;;;;;;;;;;;;26.42;43.43;93873.66;4956576;28;9053;-63
2022/06/08 05:08:08;;;;;;;;;;;;;;;26.39;43.92;93869.19;4967310;28;6972;-64
2022/06/08 05:10:38;;;;;;;;;;;;;;;26.39;43.29;93871.94;5002740;28;7265;-63
2022/06/08 05:13:07;;;;;;;;;;;;;;;26.39;43.14;93866.44;5018569;28;7276;-64
2022/06/08 05:15:36;;;;;;;;;;;;;;;26.40;43.42;93865.94;5011148;28;7220;-64
2022/06/08 05:18:03;;;;;;;;;;;;;;;26.38;43.11;93868.44;4999806;28;7273;-63
2022/06/08 05:20:30;;;;;;;;;;;;;;;26.40;43.82;93876.22;5017039;28;9423;-64
2022/06/08 05:22:58;;;;;;;;;;;;;;;26.39;43.21;93869.94;5014686;28;7280;-64
2022/06/08 05:25:37;;;;;;;;;;;;;;;26.36;43.26;93868.22;5023231;28;6991;-64
2022/06/08 05:28:06;;;;;;;;;;;;;;;26.38;42.86;93876.72;5005288;28;7625;-64
2022/06/08 05:30:33;;;;;;;;;;;;;;;26.35;43.77;93879.78;5010440;28;7082;-64
2022/06/08 05:33:03;;;;;;;;;;;;;;;26.35;44.34;93883.31;5018245;28;7244;-64
2022/06/08 05:35:32;;;;;;;;;;;;;;;26.36;44.03;93879.25;5001733;28;9297;-64
2022/06/08 05:37:58;;;;;;;;;;;;;;;26.35;43.74;93882.56;5011734;28;9213;-64
2022/06/08 05:40:31;;;;;;;;;;;;;;;26.35;43.39;93883.31;5005197;28;7082;-64
2022/06/08 05:43:08;;;;;;;;;;;;;;;26.35;43.23;93882.56;5009681;28;7071;-63
2022/06/08 05:45:46;;;;;;;;;;;;;;;26.36;43.34;93878.53;5022087;28;9571;-64
2022/06/08 05:48:14;;;;;;;;;;;;;;;26.34;43.96;93876.28;5022083;28;9023;-64
2022/06/08 05:50:44;;;;;;;;;;;;;;;26.36;43.39;93871.00;5007753;28;9222;-64
2022/06/08 05:53:16;;;;;;;;;;;;;;;26.35;43.03;93868.78;5012273;28;7208;-64
2022/06/08 05:55:48;;;;;;;;;;;;;;;26.33;43.73;93876.81;5028197;28;9196;-64
2022/06/08 05:58:19;;;;;;;;;;;;;;;26.32;43.34;93873.31;5024334;28;8916;-64
2022/06/08 06:00:46;;;;;;;;;;;;;;;26.35;43.54;93860.50;5020522;28;9078;-63
2022/06/08 06:06:50;;;;;;;;;;;;;;;26.34;42.39;93868.03;5030762;28;7687;-64
2022/06/08 06:09:20;;;;;;;;;;;;;;;26.34;43.61;93859.03;5017061;28;7319;-64
2022/06/08 06:11:47;;;;;;;;;;;;;;;26.34;42.78;93864.53;5016122;28;9175;-65
2022/06/08 06:14:13;;;;;;;;;;;;;;;26.34;43.18;93859.75;5018296;28;7286;-64
2022/06/08 06:16:46;;;;;;;;;;;;;;;26.33;43.31;93855.53;5019772;28;7825;-64
2022/06/08 06:19:14;;;;;;;;;;;;;;;26.35;42.94;93854.97;5010770;28;7816;-64
2022/06/08 06:21:42;;;;;;;;;;;;;;;26.35;43.45;93855.72;5004977;28;6967;-64
2022/06/08 06:24:10;;;;;;;;;;;;;;;26.32;42.92;93854.03;5003231;28;7095;-64
2022/06/08 06:26:52;;;;;;;;;;;;;;;26.36;43.41;93859.25;5008998;28;8480;-64
2022/06/08 06:29:39;;;;;;;;;;;;;;;26.35;43.30;93855.72;5013540;28;9585;-64
2022/06/08 06:32:35;;;;;;;;;;;;;;;26.35;43.61;93858.50;5024408;28;8432;-64
2022/06/08 06:35:05;;;;;;;;;;;;;;;26.35;43.14;93861.25;4946071;28;6990;-64
2022/06/08 06:37:31;;;;;;;;;;;;;;;26.33;42.92;93858.28;4967232;28;8391;-64
2022/06/08 06:40:07;;;;;;;;;;;;;;;26.34;43.25;93859.75;4965270;28;7651;-65
2022/06/08 06:42:36;;;;;;;;;;;;;;;26.36;43.39;93864.75;4949621;28;9439;-64
2022/06/08 06:45:18;;;;;;;;;;;;;;;26.37;43.73;93861.47;4963788;28;9128;-64
2022/06/08 06:47:57;;;;;;;;;;;;;;;26.38;43.48;93862.22;4949603;28;8938;-63
2022/06/08 06:50:26;;;;;;;;;;;;;;;26.37;43.76;93857.94;4963817;28;7192;-65
2022/06/08 06:53:04;;;;;;;;;;;;;;;26.39;43.12;93858.16;4952150;28;7366;-64
2022/06/08 06:55:42;;;;;;;;;;;;;;;26.39;42.63;93850.66;4962623;28;7249;-64
2022/06/08 06:58:20;;;;;;;;;;;;;;;26.38;42.76;93857.41;4946755;28;9010;-64
2022/06/08 07:00:47;;;;;;;;;;;;;;;26.38;43.06;93854.66;4952565;28;7376;-65
2022/06/08 07:03:29;;;;;;;;;;;;;;;26.36;42.51;93846.16;4952498;28;7245;-64
2022/06/08 07:06:00;;;;;;;;;;;;;;;26.37;42.21;93842.16;4961510;28;7110;-64
2022/06/08 07:08:26;;;;;;;;;;;;;;;26.38;43.07;93843.63;4968659;28;7230;-64
2022/06/08 07:13:44;;;;;;;;;;;;;;;26.37;43.11;93839.41;5025280;28;9063;-64
2022/06/08 07:16:11;;;;;;;;;;;;;;;26.37;43.00;93841.41;5017613;28;9443;-64
2022/06/08 07:18:39;;;;;;;;;;;;;;;26.38;43.08;93831.88;5011936;28;8956;-64
2022/06/08 07:21:05;;;;;;;;;;;;;;;26.37;42.66;93831.13;5003645;28;9477;-64
2022/06/08 07:23:45;;;;;;;;;;;;;;;26.39;43.19;93825.06;5010963;28;7247;-65
2022/06/08 07:26:12;;;;;;;;;;;;;;;26.38;42.73;93821.56;5006265;28;8758;-64
2022/06/08 07:28:42;;;;;;;;;;;;;;;26.39;42.73;93812.03;5024153;28;7076;-65
2022/06/08 07:31:12;;;;;;;;;;;;;;;26.40;42.46;93812.78;5005358;28;9075;-64
2022/06/08 07:33:45;;;;;;;;;;;;;;;26.40;43.19;93807.28;5008123;28;7344;-64
2022/06/08 07:36:20;;;;;;;;;;;;;;;26.41;42.00;93801.22;5001768;28;7240;-64
2022/06/08 07:39:00;;;;;;;;;;;;;;;26.40;42.46;93793.47;4998965;28;9090;-64
2022/06/08 07:41:26;;;;;;;;;;;;;;;26.41;42.38;93789.44;5008237;28;7332;-64
2022/06/08 07:43:53;;;;;;;;;;;;;;;26.40;42.72;93779.69;4997505;28;9093;-65
2022/06/08 07:46:23;;;;;;;;;;;;;;;26.42;41.98;93783.41;5007543;28;7450;-64
2022/06/08 07:51:56;;;;;;;;;;;;;;;26.41;42.47;93779.16;5020537;28;9165;-64
2022/06/08 07:54:28;;;;;;;;;;;;;;;26.43;41.70;93773.84;5007752;28;7147;-64
2022/06/08 07:57:15;;;;;;;;;;;;;;;26.43;42.64;93773.09;5004995;28;9021;-64
2022/06/08 07:59:51;;;;;;;;;;;;;;;26.42;41.82;93769.63;5015722;28;6976;-64
2022/06/08 08:02:28;;;;;;;;;;;;;;;26.39;42.78;93767.16;5022745;28;8525;-64
2022/06/08 08:05:22;;;;;;;;;;;;;;;26.40;41.90;93765.91;5007080;28;7341;-64
2022/06/08 08:08:10;;;;;;;;;;;;;;;26.40;42.95;93763.16;4948144;28;7246;-64
2022/06/08 08:10:54;;;;;;;;;;;;;;;26.41;42.53;93756.34;4951158;28;7289;-64
2022/06/08 08:13:30;;;;;;;;;;;;;;;26.42;42.32;93746.81;4959607;28;6982;-64
2022/06/08 08:15:56;;;;;;;;;;;;;;;26.42;42.42;93747.56;4957477;28;9175;-64
2022/06/08 08:18:22;;;;;;;;;;;;;;;26.44;42.69;93741.50;4947122;28;7255;-64
2022/06/08 08:20:48;;;;;;;;;;;;;;;26.40;42.22;93741.09;4962617;28;9022;-64
2022/06/08 08:23:15;;;;;;;;;;;;;;;26.41;42.14;93748.81;4956977;28;7104;-64
2022/06/08 08:25:44;;;;;;;;;;;;;;;26.41;41.79;93742.56;4945497;28;9112;-64
2022/06/08 08:28:11;;;;;;;;;;;;;;;26.43;42.23;93740.00;4953785;28;9154;-64
2022/06/08 08:30:46;;;;;;;;;;;;;;;26.42;42.70;93739.28;4964217;28;8736;-64
2022/06/08 08:33:20;;;;;;;;;;;;;;;26.43;42.15;93746.28;4949870;28;7245;-64
2022/06/08 08:35:50;;;;;;;;;;;;;;;26.42;42.74;93742.06;4956165;28;9017;-64
2022/06/08 08:38:21;;;;;;;;;;;;;;;26.43;42.00;93742.78;4963912;28;7037;-64
2022/06/08 08:41:02;;;;;;;;;;;;;;;26.44;42.00;93736.00;4947199;28;7414;-64
2022/06/08 08:43:34;;;;;;;;;;;;;;;26.44;42.04;93736.75;4960874;28;7000;-64
2022/06/08 08:46:28;;;;;;;;;;;;;;;26.46;41.67;93736.22;5004702;28;8994;-65
2022/06/08 08:49:19;;;;;;;;;;;;;;;26.46;41.92;93736.94;5010747;28;7253;-64
2022/06/08 08:51:57;;;;;;;;;;;;;;;26.49;42.72;93732.41;5000332;28;7886;-64
2022/06/08 08:54:35;;;;;;;;;;;;;;;26.51;42.17;93729.84;4997627;28;9394;-64
2022/06/08 08:57:11;;;;;;;;;;;;;;;26.51;42.59;93727.09;5004972;28;9394;-64
2022/06/08 08:59:43;;;;;;;;;;;;;;;26.53;42.13;93728.03;5011121;28;8110;-64
2022/06/08 09:05:21;;;;;;;;;;;;;;;26.56;41.30;93723.44;5022159;28;7302;-64
2022/06/08 09:07:58;;;;;;;;;;;;;;;26.56;41.03;93734.47;5011493;28;8212;-64
2022/06/08 09:10:27;;;;;;;;;;;;;;;26.58;41.58;93740.22;5017652;28;7234;-64
2022/06/08 09:13:03;;;;;;;;;;;;;;;26.58;40.82;93735.44;5005643;28;6987;-64
2022/06/08 09:15:50;;;;;;;;;;;;;;;26.61;41.56;93728.13;5008764;28;7654;-64
2022/06/08 09:18:19;;;;;;;;;;;;;;;26.62;41.01;93733.09;5001728;28;7401;-64
2022/06/08 09:20:48;;;;;;;;;;;;;;;26.61;41.31;93728.13;5013033;28;7007;-64
2022/06/08 09:23:23;;;;;;;;;;;;;;;26.63;41.21;93725.56;5004613;28;9091;-64
2022/06/08 09:26:35;;;;;;;;;;;;;;;26.65;40.88;93725.78;4998646;28;8518;-64
2022/06/08 09:29:20;;;;;;;;;;;;;;;26.66;40.89;93730.03;4951432;28;9136;-64
2022/06/08 09:31:56;;;;;;;;;;;;;;;26.68;41.07;93733.00;4947529;28;9390;-64
2022/06/08 09:34:57;;;;;;;;;;;;;;;26.69;41.52;93729.69;4968257;28;9295;-64
2022/06/08 09:37:24;;;;;;;;;;;;;;;26.68;40.78;93719.19;4970424;28;9419;-64
2022/06/08 09:40:02;;;;;;;;;;;;;;;26.69;41.35;93713.13;4963606;28;7061;-64
2022/06/08 09:42:46;;;;;;;;;;;;;;;26.70;40.15;93705.63;4951826;28;8759;-64
2022/06/08 09:45:37;;;;;;;;;;;;;;;26.69;41.06;93690.31;4969056;28;9442;-64
2022/06/08 09:51:37;;;;;;;;;;;;;;;26.68;40.83;93688.84;4907048;29;7277;-64
2022/06/08 09:54:23;;;;;;;;;;;;;;;26.66;41.45;93691.41;4890648;29;7369;-65
2022/06/08 09:57:21;;;;;;;;;;;;;;;26.65;42.10;93684.41;4908701;29;9508;-63
2022/06/08 10:00:42;;;;;;;;;;;;;;;26.63;42.36;93684.19;4895745;29;7379;-64
2022/06/08 10:07:19;;;;;;;;;;;;;;;26.69;41.75;93680.03;4854277;29;7486;-64
2022/06/08 10:09:53;;;;;;;;;;;;;;;26.72;41.75;93678.97;4861185;29;9493;-64
2022/06/08 10:13:05;;;;;;;;;;;;;;;26.72;41.27;93670.69;4862092;29;9379;-64
2022/06/08 10:15:42;;;;;;;;;;;;;;;26.72;41.51;93670.69;4862597;29;8778;-64
2022/06/08 10:18:24;;;;;;;;;;;;;;;26.75;41.28;93666.88;4865865;29;6999;-64
2022/06/08 10:20:55;;;;;;;;;;;;;;;26.76;41.57;93664.88;4859174;29;6861;-64
2022/06/08 10:23:29;;;;;;;;;;;;;;;26.73;41.90;93663.19;4860617;29;7042;-63
2022/06/08 10:26:44;;;;;;;;;;;;;;;26.74;42.25;93661.91;4860421;29;7271;-63
2022/06/08 10:29:18;;;;;;;;;;;;;;;26.74;42.11;93654.38;4892327;29;9208;-64
2022/06/08 10:32:11;;;;;;;;;;;;;;;26.77;41.44;93652.56;4916624;29;7140;-63
2022/06/08 10:34:38;;;;;;;;;;;;;;;26.76;42.01;93649.06;4902455;29;9265;-64
2022/06/08 10:37:24;;;;;;;;;;;;;;;26.78;41.87;93651.28;4950171;28;7837;-64
2022/06/08 10:39:51;;;;;;;;;;;;;;;26.79;41.98;93641.75;5008775;28;8816;-64
2022/06/08 10:42:39;;;;;;;;;;;;;;;26.79;41.98;93639.72;4996163;28;8400;-64
2022/06/08 10:45:35;;;;;;;;;;;;;;;26.80;41.27;93640.44;4999070;28;9432;-64
2022/06/08 10:48:47;;;;;;;;;;;;;;;26.82;41.52;93638.63;5003155;28;10337;-64
2022/06/08 10:51:12;;;;;;;;;;;;;;;26.84;41.74;93635.34;4998962;28;6986;-64
2022/06/08 10:56:27;;;;;;;;;;;;;;;26.82;41.88;93633.13;5017672;28;7250;-63
2022/06/08 10:59:24;;;;;;;;;;;;;;;26.83;42.62;93633.88;5002193;28;6983;-64
2022/06/08 11:01:50;;;;;;;;;;;;;;;26.84;41.89;93627.81;5015984;28;9546;-63
2022/06/08 11:04:31;;;;;;;;;;;;;;;26.87;42.31;93623.22;5008154;28;7028;-64
2022/06/08 11:07:09;;;;;;;;;;;;;;;26.90;42.27;93614.59;4998000;28;7248;-64
2022/06/08 11:09:43;;;;;;;;;;;;;;;26.89;41.68;93615.91;5010361;28;7296;-64
2022/06/08 11:12:11;;;;;;;;;;;;;;;26.91;41.87;93601.56;5021857;28;7028;-63
2022/06/08 11:14:45;;;;;;;;;;;;;;;26.93;42.12;93610.03;5017540;28;7273;-64
2022/06/08 11:17:25;;;;;;;;;;;;;;;26.90;42.58;93605.63;4999529;28;9100;-64
2022/06/08 11:20:03;;;;;;;;;;;;;;;26.92;41.66;93607.81;5006643;28;7663;-63
2022/06/08 11:22:45;;;;;;;;;;;;;;;26.91;42.07;93615.34;5005284;28;7008;-63
2022/06/08 11:25:21;;;;;;;;;;;;;;;26.92;41.27;93614.09;5005674;28;9040;-64
2022/06/08 11:28:25;;;;;;;;;;;;;;;26.90;41.82;93606.34;5004147;28;6977;-64
2022/06/08 11:30:55;;;;;;;;;;;;;;;26.94;41.69;93617.06;5012858;28;6872;-63
2022/06/08 11:33:24;;;;;;;;;;;;;;;26.96;41.54;93605.47;5004527;28;7195;-64
2022/06/08 11:36:42;;;;;;;;;;;;;;;26.97;41.84;93610.44;5009066;28;6987;-64
2022/06/08 11:39:53;;;;;;;;;;;;;;;27.00;42.58;93619.66;4929531;28;7337;-64
2022/06/08 11:42:35;;;;;;;;;;;;;;;26.97;42.03;93615.97;4868931;29;9362;-64
2022/06/08 11:45:39;;;;;;;;;;;;;;;26.95;42.42;93607.47;4858876;29;9523;-63
2022/06/08 11:48:13;;;;;;;;;;;;;;;26.95;42.47;93604.00;4854508;29;9195;-64
2022/06/08 11:50:58;;;;;;;;;;;;;;;26.95;42.60;93606.75;4851415;29;7714;-64
2022/06/08 11:53:34;;;;;;;;;;;;;;;26.94;42.92;93606.00;4870852;29;7531;-64
2022/06/08 11:56:29;;;;;;;;;;;;;;;26.94;43.03;93597.72;4850343;29;7286;-64
2022/06/08 11:59:03;;;;;;;;;;;;;;;26.97;43.06;93604.91;4862735;29;7376;-64
2022/06/08 12:01:42;;;;;;;;;;;;;;;26.97;43.47;93598.69;4878171;29;7156;-64
2022/06/08 12:04:22;;;;;;;;;;;;;;;26.95;43.60;93601.97;4873415;29;9434;-64
2022/06/08 12:06:52;;;;;;;;;;;;;;;26.97;43.12;93598.69;4871177;29;7377;-64
2022/06/08 12:09:47;;;;;;;;;;;;;;;27.00;43.62;93594.81;4859314;29;6988;-64
2022/06/08 12:12:26;;;;;;;;;;;;;;;26.99;43.18;93598.88;4874636;29;8233;-64
2022/06/08 12:14:52;;;;;;;;;;;;;;;27.00;43.60;93611.38;4909806;28;7246;-65
2022/06/08 12:17:18;;;;;;;;;;;;;;;27.01;43.09;93610.88;4966049;28;8711;-64
2022/06/08 12:19:59;;;;;;;;;;;;;;;26.99;43.41;93607.88;5021237;28;7235;-64
2022/06/08 12:22:35;;;;;;;;;;;;;;;26.99;43.82;93610.63;5012258;28;7266;-64
2022/06/08 12:25:22;;;;;;;;;;;;;;;26.99;43.34;93605.13;5017825;28;7005;-64
2022/06/08 12:28:21;;;;;;;;;;;;;;;27.01;43.36;93610.13;4999672;28;7032;-64
2022/06/08 12:30:47;;;;;;;;;;;;;;;27.05;43.94;93616.78;5007223;28;9692;-64
2022/06/08 12:33:13;;;;;;;;;;;;;;;27.06;43.01;93618.25;5000652;28;7284;-65
2022/06/08 12:36:12;;;;;;;;;;;;;;;27.10;43.08;93628.97;5022930;28;7478;-63
2022/06/08 12:39:11;;;;;;;;;;;;;;;27.13;42.81;93619.59;4995591;28;8889;-64
2022/06/08 12:41:51;;;;;;;;;;;;;;;27.15;43.44;93620.53;4993057;28;7076;-64
2022/06/08 12:44:35;;;;;;;;;;;;;;;27.15;42.73;93628.81;5014507;28;7230;-64
2022/06/08 12:47:17;;;;;;;;;;;;;;;27.17;43.38;93633.78;5020039;28;9095;-64
2022/06/08 12:49:59;;;;;;;;;;;;;;;27.19;42.70;93631.97;4997665;28;6868;-64
2022/06/08 12:52:32;;;;;;;;;;;;;;;27.16;42.40;93635.84;5001709;28;7068;-64
2022/06/08 12:55:14;;;;;;;;;;;;;;;27.16;42.60;93637.84;5025877;28;6959;-64
2022/06/08 12:57:42;;;;;;;;;;;;;;;27.13;42.99;93644.44;5003130;28;7262;-63
2022/06/08 13:00:16;;;;;;;;;;;;;;;27.14;41.79;93646.69;5001147;28;8740;-64
2022/06/08 13:02:47;;;;;;;;;;;;;;;27.13;41.60;93653.47;4994894;28;9094;-63
2022/06/08 13:05:35;;;;;;;;;;;;;;;27.11;42.25;93652.53;5020007;28;9140;-65
2022/06/08 13:08:15;;;;;;;;;;;;;;;27.08;42.37;93659.13;5010898;28;7387;-64
2022/06/08 13:11:07;;;;;;;;;;;;;;;27.08;41.87;93656.38;5006372;28;9171;-64
2022/06/08 13:13:38;;;;;;;;;;;;;;;27.05;40.85;93654.69;5019487;28;9449;-64
2022/06/08 13:16:14;;;;;;;;;;;;;;;27.03;41.39;93663.50;5013354;28;7527;-64
2022/06/08 13:18:40;;;;;;;;;;;;;;;27.04;41.19;93664.97;5018069;28;7127;-64
2022/06/08 13:21:09;;;;;;;;;;;;;;;27.03;40.46;93679.31;5007154;28;7948;-64
2022/06/08 13:24:12;;;;;;;;;;;;;;;27.04;39.97;93673.25;5020704;28;9093;-65
2022/06/08 13:26:48;;;;;;;;;;;;;;;27.04;39.73;93686.31;4950182;28;9725;-64
2022/06/08 13:29:25;;;;;;;;;;;;;;;27.03;39.99;93676.56;4959677;28;7132;-65
2022/06/08 13:32:01;;;;;;;;;;;;;;;27.05;40.13;93677.50;4971533;28;8849;-64
2022/06/08 13:34:39;;;;;;;;;;;;;;;27.04;39.80;93687.06;4963951;28;9435;-64
2022/06/08 13:37:42;;;;;;;;;;;;;;;27.00;40.44;93686.66;4946543;28;9065;-65
2022/06/08 13:40:31;;;;;;;;;;;;;;;27.00;39.62;93694.19;4905022;29;9027;-65
2022/06/08 13:43:10;;;;;;;;;;;;;;;26.99;39.30;93698.94;4889854;29;9152;-64
2022/06/08 13:45:46;;;;;;;;;;;;;;;27.01;39.09;93699.19;4910902;29;9118;-65
2022/06/08 13:48:22;;;;;;;;;;;;;;;27.00;40.20;93700.44;4907127;29;7218;-64
2022/06/08 13:51:00;;;;;;;;;;;;;;;26.98;39.27;93713.28;4891575;29;8753;-64
2022/06/08 13:53:30;;;;;;;;;;;;;;;26.96;39.82;93724.88;4911043;29;7273;-64
2022/06/08 13:56:06;;;;;;;;;;;;;;;26.95;39.95;93728.91;4893947;29;7521;-65
2022/06/08 13:58:35;;;;;;;;;;;;;;;26.92;40.26;93727.22;4898590;29;8942;-65
2022/06/08 14:01:35;;;;;;;;;;;;;;;26.91;40.50;93736.78;4909344;29;8749;-64
2022/06/08 14:04:13;;;;;;;;;;;;;;;26.92;39.82;93751.31;4917026;29;7195;-64
2022/06/08 14:15:04;;;;;;;;;;;;;;;26.94;40.34;93752.28;5004281;28;7213;-65
2022/06/08 14:17:30;;;;;;;;;;;;;;;26.93;40.44;93756.31;5004439;28;7318;-66
2022/06/08 14:19:58;;;;;;;;;;;;;;;26.92;40.53;93757.59;5000096;28;9085;-66
2022/06/08 14:22:35;;;;;;;;;;;;;;;26.92;40.51;93763.81;5023527;28;9120;-65
2022/06/08 14:25:08;;;;;;;;;;;;;;;26.90;40.10;93757.38;5024366;28;8795;-65
2022/06/08 14:27:46;;;;;;;;;;;;;;;26.87;39.67;93755.69;5019503;28;7186;-65
2022/06/08 14:30:15;;;;;;;;;;;;;;;26.89;40.13;93750.38;5004466;28;7127;-65
2022/06/08 14:32:49;;;;;;;;;;;;;;;26.93;40.28;93753.53;5021686;28;7200;-65
2022/06/08 14:35:25;;;;;;;;;;;;;;;26.95;39.91;93753.75;5007460;28;6997;-64